createdAt,value
2022-09-11T00:00:49.616Z,16.05
2022-09-11T00:02:51.099Z,15.05
2022-09-11T00:04:52.534Z,15.38
2022-09-11T00:06:53.956Z,15.82
2022-09-11T00:09:01.268Z,15.85
2022-09-11T00:11:17.383Z,15.43
2022-09-11T00:13:21.777Z,14.07
2022-09-11T00:15:23.228Z,14.75
2022-09-11T00:17:24.657Z,16.05
2022-09-11T00:19:28.155Z,14.80
2022-09-11T00:21:29.873Z,15.48
2022-09-11T00:23:31.665Z,15.43
2022-09-11T00:25:35.064Z,15.65
2022-09-11T00:27:36.560Z,15.85
2022-09-11T00:29:37.991Z,14.55
2022-09-11T00:31:39.870Z,15.20
2022-09-11T00:33:42.323Z,15.23
2022-09-11T00:35:44.890Z,15.10
2022-09-11T00:37:48.236Z,15.13
2022-09-11T00:39:50.285Z,14.48
2022-09-11T00:41:51.794Z,15.30
2022-09-11T00:43:59.659Z,15.27
2022-09-11T00:46:05.709Z,14.55
2022-09-11T00:48:10.683Z,13.32
2022-09-11T00:50:20.469Z,13.32
2022-09-11T00:52:26.967Z,13.77
2022-09-11T00:54:35.559Z,13.75
2022-09-11T00:58:44.136Z,13.27
2022-09-11T01:00:46.171Z,12.95
2022-09-11T01:02:51.160Z,14.05
2022-09-11T01:04:54.223Z,12.90
2022-09-11T01:06:57.543Z,13.50
2022-09-11T01:08:59.287Z,13.32
2022-09-11T01:11:26.324Z,13.52
2022-09-11T01:13:42.337Z,12.70
2022-09-11T01:15:52.070Z,12.50
2022-09-11T01:17:56.399Z,13.32
2022-09-11T01:20:19.235Z,13.68
2022-09-11T01:22:51.409Z,13.35
2022-09-11T01:25:21.961Z,13.77
2022-09-11T01:27:42.640Z,13.05
2022-09-11T01:30:13.262Z,12.40
2022-09-11T01:32:15.181Z,12.98
2022-09-11T01:34:25.772Z,12.75
2022-09-11T01:36:36.272Z,13.50
2022-09-11T01:38:54.261Z,13.35
2022-09-11T01:41:21.807Z,14.45
2022-09-11T01:43:27.080Z,13.30
2022-09-11T01:45:30.117Z,13.35
2022-09-11T01:47:35.046Z,13.90
2022-09-11T01:49:50.910Z,15.20
2022-09-11T01:51:57.785Z,13.63
2022-09-11T01:54:02.356Z,14.07
2022-09-11T01:56:10.308Z,13.70
2022-09-11T01:58:19.201Z,13.70
2022-09-11T02:00:20.878Z,14.35
2022-09-11T02:02:29.579Z,14.07
2022-09-11T02:06:48.300Z,15.55
2022-09-11T02:09:06.536Z,15.60
2022-09-11T02:11:11.285Z,15.63
2022-09-11T02:13:27.804Z,16.73
2022-09-11T02:15:39.015Z,15.18
2022-09-11T02:17:53.913Z,14.77
2022-09-11T02:19:58.042Z,15.07
2022-09-11T02:21:59.820Z,15.93
2022-09-11T02:24:02.111Z,15.93
2022-09-11T02:26:05.759Z,16.25
2022-09-11T02:28:07.241Z,16.10
2022-09-11T02:30:09.327Z,16.70
2022-09-11T02:32:11.615Z,15.88
2022-09-11T02:34:14.903Z,16.08
2022-09-11T02:36:43.749Z,15.82
2022-09-11T02:38:52.625Z,15.23
2022-09-11T02:41:10.052Z,15.10
2022-09-11T02:43:33.060Z,15.23
2022-09-11T02:46:05.551Z,15.27
2022-09-11T02:48:25.290Z,14.88
2022-09-11T02:50:48.263Z,13.63
2022-09-11T02:53:07.588Z,15.00
2022-09-11T02:55:20.664Z,16.08
2022-09-11T02:57:39.211Z,15.65
2022-09-11T03:01:56.424Z,15.82
2022-09-11T03:03:57.965Z,16.52
2022-09-11T03:05:59.495Z,15.95
2022-09-11T03:08:04.389Z,16.30
2022-09-11T03:10:11.152Z,16.63
2022-09-11T03:12:12.605Z,16.75
2022-09-11T03:14:14.489Z,16.65
2022-09-11T03:16:15.967Z,17.15
2022-09-11T03:18:17.509Z,18.27
2022-09-11T03:20:20.139Z,18.80
2022-09-11T03:22:21.624Z,18.88
2022-09-11T03:24:23.070Z,18.48
2022-09-11T03:26:25.791Z,20.27
2022-09-11T03:28:27.312Z,19.25
2022-09-11T03:30:28.765Z,19.73
2022-09-11T03:32:31.911Z,18.25
2022-09-11T03:34:34.314Z,18.90
2022-09-11T03:36:36.567Z,20.10
2022-09-11T03:38:38.171Z,19.35
2022-09-11T03:40:41.671Z,18.90
2022-09-11T03:42:43.169Z,19.15
2022-09-11T03:44:45.566Z,19.17
2022-09-11T03:46:47.083Z,18.40
2022-09-11T03:48:48.487Z,19.27
2022-09-11T03:50:49.918Z,19.42
2022-09-11T03:52:51.442Z,18.92
2022-09-11T03:54:52.853Z,19.13
2022-09-11T03:56:54.277Z,19.63
2022-09-11T03:58:57.188Z,19.90
2022-09-11T04:00:59.199Z,20.70
2022-09-11T04:03:01.937Z,21.15
2022-09-11T04:05:04.464Z,20.65
2022-09-11T04:07:05.892Z,21.40
2022-09-11T04:09:08.983Z,21.63
2022-09-11T04:11:14.276Z,21.38
2022-09-11T04:13:16.701Z,22.00
2022-09-11T04:15:18.155Z,21.48
2022-09-11T04:17:19.584Z,22.58
2022-09-11T04:19:21.636Z,22.15
2022-09-11T04:21:23.091Z,21.83
2022-09-11T04:23:25.266Z,22.60
2022-09-11T04:25:26.747Z,22.95
2022-09-11T04:27:28.222Z,24.00
2022-09-11T04:29:29.836Z,22.00
2022-09-11T04:31:31.395Z,23.45
2022-09-11T04:33:34.762Z,22.73
2022-09-11T04:35:40.597Z,22.73
2022-09-11T04:37:42.003Z,22.33
2022-09-11T04:39:43.501Z,22.10
2022-09-11T04:41:45.194Z,22.17
2022-09-11T04:43:47.185Z,24.02
2022-09-11T04:45:48.708Z,24.10
2022-09-11T04:47:52.755Z,21.85
2022-09-11T04:49:55.099Z,22.90
2022-09-11T04:51:57.912Z,23.13
2022-09-11T04:53:59.835Z,22.55
2022-09-11T04:56:15.369Z,21.75
2022-09-11T04:58:16.813Z,22.13
2022-09-11T05:00:18.273Z,22.58
2022-09-11T05:02:20.018Z,21.67
2022-09-11T05:04:25.992Z,21.83
2022-09-11T05:06:30.206Z,21.25
2022-09-11T05:08:33.461Z,21.70
2022-09-11T05:10:38.319Z,22.20
2022-09-11T05:12:39.725Z,22.65
2022-09-11T05:14:41.194Z,21.20
2022-09-11T05:16:44.063Z,22.60
2022-09-11T05:18:51.964Z,21.17
2022-09-11T05:21:01.752Z,23.52
2022-09-11T05:23:03.328Z,22.63
2022-09-11T05:25:05.014Z,22.55
2022-09-11T05:27:07.461Z,22.73
2022-09-11T05:29:13.373Z,22.52
2022-09-11T05:31:17.278Z,21.70
2022-09-11T05:33:18.963Z,21.88
2022-09-11T05:35:21.366Z,21.85
2022-09-11T05:37:22.815Z,22.52
2022-09-11T05:39:24.537Z,21.83
2022-09-11T05:41:26.562Z,22.60
2022-09-11T05:43:28.147Z,22.08
2022-09-11T05:45:29.612Z,22.92
2022-09-11T05:47:31.032Z,23.23
2022-09-11T05:49:32.538Z,22.95
2022-09-11T05:51:37.603Z,22.55
2022-09-11T05:53:40.739Z,20.15
2022-09-11T05:55:42.193Z,21.67
2022-09-11T05:57:43.622Z,21.80
2022-09-11T05:59:45.069Z,21.85
2022-09-11T06:01:47.677Z,21.08
2022-09-11T06:03:49.868Z,21.10
2022-09-11T06:05:51.286Z,20.80
2022-09-11T06:07:53.584Z,21.67
2022-09-11T06:09:56.321Z,21.23
2022-09-11T06:12:01.681Z,22.33
2022-09-11T06:14:03.119Z,21.48
2022-09-11T06:16:05.412Z,20.40
2022-09-11T06:18:07.693Z,20.15
2022-09-11T06:20:12.932Z,20.88
2022-09-11T06:22:14.598Z,21.17
2022-09-11T06:24:16.060Z,20.35
2022-09-11T06:26:19.652Z,20.95
2022-09-11T06:28:24.023Z,20.88
2022-09-11T06:30:25.530Z,21.13
2022-09-11T06:32:27.044Z,20.92
2022-09-11T06:34:28.466Z,21.23
2022-09-11T06:36:31.488Z,21.15
2022-09-11T06:38:33.241Z,20.02
2022-09-11T06:40:37.052Z,19.77
2022-09-11T06:42:39.412Z,20.25
2022-09-11T06:44:42.023Z,20.40
2022-09-11T06:46:44.317Z,19.88
2022-09-11T06:48:48.218Z,19.40
2022-09-11T06:50:49.650Z,21.58
2022-09-11T06:52:51.874Z,20.38
2022-09-11T06:54:53.387Z,20.30
2022-09-11T06:56:54.809Z,20.92
2022-09-11T06:58:56.310Z,20.50
2022-09-11T07:01:04.952Z,19.77
2022-09-11T07:05:10.836Z,18.88
2022-09-11T07:07:12.251Z,19.40
2022-09-11T07:09:13.775Z,18.42
2022-09-11T07:11:15.311Z,17.33
2022-09-11T07:13:16.793Z,19.73
2022-09-11T07:15:18.313Z,18.73
2022-09-11T07:17:19.739Z,16.23
2022-09-11T07:19:24.825Z,19.30
2022-09-11T07:21:27.677Z,17.85
2022-09-11T07:23:29.084Z,17.90
2022-09-11T07:25:30.559Z,17.67
2022-09-11T07:27:33.557Z,15.98
2022-09-11T07:29:35.064Z,15.43
2022-09-11T07:31:38.143Z,15.57
2022-09-11T07:33:42.945Z,15.35
2022-09-11T07:35:44.506Z,14.98
2022-09-11T07:37:50.615Z,16.63
2022-09-11T07:39:52.368Z,15.23
2022-09-11T07:41:53.862Z,13.82
2022-09-11T07:43:58.005Z,12.98
2022-09-11T07:45:59.439Z,13.00
2022-09-11T07:48:01.753Z,13.43
2022-09-11T07:50:03.757Z,14.23
2022-09-11T07:52:05.395Z,13.98
2022-09-11T07:54:08.054Z,13.05
2022-09-11T07:56:15.611Z,15.00
2022-09-11T07:58:17.146Z,14.15
2022-09-11T08:00:18.722Z,15.85
2022-09-11T08:02:20.321Z,14.43
2022-09-11T08:04:21.863Z,15.18
2022-09-11T08:06:24.003Z,15.52
2022-09-11T08:08:26.150Z,13.50
2022-09-11T08:10:28.297Z,12.85
2022-09-11T08:12:31.278Z,12.50
2022-09-11T08:14:32.766Z,12.50
2022-09-11T08:16:36.287Z,12.27
2022-09-11T08:18:37.849Z,12.40
2022-09-11T08:20:39.338Z,13.40
2022-09-11T08:22:42.038Z,13.23
2022-09-11T08:24:43.467Z,13.20
2022-09-11T08:26:48.755Z,12.80
2022-09-11T08:28:52.737Z,12.77
2022-09-11T08:30:58.915Z,12.68
2022-09-11T08:33:01.405Z,13.30
2022-09-11T08:35:02.845Z,12.93
2022-09-11T08:37:04.436Z,12.98
2022-09-11T08:39:06.038Z,11.90
2022-09-11T08:41:12.904Z,13.57
2022-09-11T08:43:22.368Z,13.25
2022-09-11T08:45:28.558Z,13.65
2022-09-11T08:47:34.735Z,12.95
2022-09-11T08:49:42.966Z,13.20
2022-09-11T08:51:45.408Z,12.93
2022-09-11T08:53:47.875Z,14.60
2022-09-11T08:55:53.122Z,14.27
2022-09-11T08:58:21.706Z,15.18
2022-09-11T09:00:32.077Z,13.93
2022-09-11T09:02:42.033Z,14.75
2022-09-11T09:04:50.927Z,14.43
2022-09-11T09:07:13.670Z,13.60
2022-09-11T09:09:35.261Z,13.77
2022-09-11T09:11:52.626Z,14.65
2022-09-11T09:14:12.760Z,15.60
2022-09-11T09:17:03.274Z,14.85
2022-09-11T09:19:17.288Z,13.90
2022-09-11T09:21:27.949Z,13.63
2022-09-11T09:23:35.697Z,12.10
2022-09-11T09:25:42.093Z,11.50
2022-09-11T09:27:47.197Z,13.00
2022-09-11T09:29:55.820Z,11.90
2022-09-11T09:34:17.218Z,9.75
2022-09-11T09:36:41.415Z,8.55
2022-09-11T09:38:43.652Z,10.07
2022-09-11T09:40:59.599Z,8.27
2022-09-11T09:43:08.110Z,8.30
2022-09-11T09:45:19.133Z,9.43
2022-09-11T09:47:20.940Z,7.47
2022-09-11T09:49:29.691Z,7.55
2022-09-11T09:51:31.143Z,7.70
2022-09-11T09:54:00.415Z,7.72
2022-09-11T09:56:04.194Z,6.35
2022-09-11T09:58:07.129Z,6.28
2022-09-11T10:00:12.680Z,6.13
2022-09-11T10:02:40.630Z,6.05
2022-09-11T10:04:42.233Z,6.00
2022-09-11T10:06:46.244Z,5.90
2022-09-11T10:08:47.727Z,5.80
2022-09-11T10:10:57.243Z,5.50
2022-09-11T10:13:24.902Z,4.90
2022-09-11T10:15:26.609Z,4.07
2022-09-11T10:17:31.345Z,4.60
2022-09-11T10:19:43.295Z,4.32
2022-09-11T10:21:44.737Z,4.25
2022-09-11T10:23:55.285Z,4.40
2022-09-11T10:25:57.147Z,3.90
2022-09-11T10:28:08.920Z,3.97
2022-09-11T10:30:30.102Z,4.43
2022-09-11T10:32:36.190Z,4.53
2022-09-11T10:34:40.498Z,6.00
2022-09-11T10:37:13.775Z,4.90
2022-09-11T10:39:19.867Z,4.65
2022-09-11T10:41:27.599Z,4.43
2022-09-11T10:44:05.434Z,4.85
2022-09-11T10:46:19.184Z,5.05
2022-09-11T10:48:23.336Z,4.65
2022-09-11T10:50:26.834Z,4.22
2022-09-11T10:52:29.814Z,4.07
2022-09-11T10:54:55.791Z,5.03
2022-09-11T10:57:00.334Z,3.95
2022-09-11T10:59:11.235Z,5.00
2022-09-11T11:01:13.267Z,4.07
2022-09-11T11:03:24.927Z,3.90
2022-09-11T11:05:41.489Z,3.65
2022-09-11T11:08:16.389Z,4.85
2022-09-11T11:10:26.850Z,4.45
2022-09-11T11:12:42.547Z,3.80
2022-09-11T11:14:59.516Z,3.55
2022-09-11T11:17:15.173Z,3.47
2022-09-11T11:19:49.309Z,3.58
2022-09-11T11:21:53.598Z,3.47
2022-09-11T11:24:07.876Z,2.45
2022-09-11T11:26:23.975Z,2.40
2022-09-11T11:28:46.833Z,2.78
2022-09-11T11:31:07.100Z,2.78
2022-09-11T11:33:17.443Z,2.90
2022-09-11T11:35:31.969Z,3.42
2022-09-11T11:37:40.448Z,2.80
2022-09-11T11:42:26.790Z,2.30
2022-09-11T11:44:39.755Z,1.85
2022-09-11T11:46:52.338Z,1.65
2022-09-11T11:49:05.904Z,1.70
2022-09-11T11:51:12.634Z,1.40
2022-09-11T11:53:38.691Z,1.27
2022-09-11T11:55:45.596Z,1.20
2022-09-11T11:57:54.141Z,1.13
2022-09-11T12:00:05.351Z,1.00
2022-09-11T12:02:09.640Z,1.10
2022-09-11T12:04:21.780Z,0.85
2022-09-11T12:06:23.222Z,1.20
2022-09-11T12:08:24.784Z,0.90
2022-09-11T12:10:31.454Z,1.00
2022-09-11T12:12:47.679Z,1.20
2022-09-11T12:15:02.403Z,1.50
2022-09-11T12:17:23.118Z,1.30
2022-09-11T12:19:27.763Z,1.30
2022-09-11T12:21:31.564Z,1.30
2022-09-11T12:23:54.580Z,1.20
2022-09-11T12:26:07.949Z,0.98
2022-09-11T12:28:25.176Z,1.00
2022-09-11T12:30:28.642Z,0.63
2022-09-11T12:32:41.910Z,0.85
2022-09-11T12:34:43.295Z,0.90
2022-09-11T12:36:54.040Z,0.73
2022-09-11T12:39:01.337Z,0.75
2022-09-11T12:41:13.506Z,0.60
2022-09-11T12:43:17.636Z,0.60
2022-09-11T12:45:38.620Z,0.80
2022-09-11T12:47:40.438Z,0.80
2022-09-11T12:49:51.358Z,0.93
2022-09-11T12:52:00.100Z,0.85
2022-09-11T12:54:11.127Z,0.50
2022-09-11T12:56:21.897Z,0.60
2022-09-11T12:58:45.670Z,0.50
2022-09-11T13:01:12.618Z,0.70
2022-09-11T13:03:21.776Z,0.80
2022-09-11T13:05:37.783Z,0.50
2022-09-11T13:07:44.491Z,0.60
2022-09-11T13:09:49.668Z,0.57
2022-09-11T13:11:53.440Z,0.63
2022-09-11T13:13:54.966Z,0.80
2022-09-11T13:15:58.356Z,0.60
2022-09-11T13:17:59.901Z,0.60
2022-09-11T13:20:10.139Z,0.50
2022-09-11T13:22:25.050Z,0.60
2022-09-11T13:24:26.494Z,0.47
2022-09-11T13:26:32.722Z,0.47
2022-09-11T13:28:44.980Z,0.95
2022-09-11T13:31:04.799Z,0.45
2022-09-11T13:33:08.991Z,0.57
2022-09-11T13:35:17.005Z,0.52
2022-09-11T13:37:50.518Z,0.40
2022-09-11T13:39:52.222Z,0.35
2022-09-11T13:42:05.251Z,0.73
2022-09-11T13:44:41.692Z,0.63
2022-09-11T13:46:51.812Z,0.80
2022-09-11T13:48:57.960Z,0.43
2022-09-11T13:50:59.530Z,0.35
2022-09-11T13:53:01.109Z,0.50
2022-09-11T13:55:12.394Z,0.30
2022-09-11T13:57:25.832Z,0.40
2022-09-11T13:59:44.903Z,0.50
2022-09-11T14:01:55.831Z,0.30
2022-09-11T14:03:57.414Z,0.32
2022-09-11T14:06:01.594Z,0.20
2022-09-11T14:08:07.578Z,0.75
2022-09-11T14:10:24.507Z,0.30
2022-09-11T14:12:27.936Z,0.30
2022-09-11T14:14:29.719Z,0.30
2022-09-11T14:16:38.322Z,0.30
2022-09-11T14:18:56.553Z,0.30
2022-09-11T14:21:01.682Z,0.30
2022-09-11T14:23:06.234Z,0.30
2022-09-11T14:25:21.869Z,0.30
2022-09-11T14:27:35.104Z,0.30
2022-09-11T14:29:37.413Z,0.32
2022-09-11T14:31:46.933Z,0.30
2022-09-11T14:33:48.654Z,0.20
2022-09-11T14:35:51.908Z,0.20
2022-09-11T14:37:53.333Z,0.40
2022-09-11T14:39:59.057Z,0.30
2022-09-11T14:42:01.808Z,0.20
2022-09-11T14:44:03.294Z,0.20
2022-09-11T14:46:05.133Z,0.20
2022-09-11T14:48:14.444Z,0.40
2022-09-11T14:50:15.924Z,0.32
2022-09-11T14:52:20.386Z,0.20
2022-09-11T14:54:22.601Z,0.40
2022-09-11T14:56:24.050Z,0.22
2022-09-11T14:58:27.049Z,0.20
2022-09-11T15:00:28.466Z,0.30
2022-09-11T15:02:29.899Z,0.30
2022-09-11T15:04:31.369Z,0.20
2022-09-11T15:06:32.866Z,0.35
2022-09-11T15:08:34.326Z,0.30
2022-09-11T15:10:35.893Z,0.28
2022-09-11T15:12:37.371Z,0.20
2022-09-11T15:14:58.221Z,0.30
2022-09-11T15:17:03.056Z,0.20
2022-09-11T15:19:04.603Z,0.30
2022-09-11T15:21:06.232Z,0.47
2022-09-11T15:23:07.725Z,0.60
2022-09-11T15:25:09.282Z,0.40
2022-09-11T15:27:10.945Z,0.30
2022-09-11T15:29:12.418Z,0.20
2022-09-11T15:31:15.683Z,0.28
2022-09-11T15:33:17.125Z,0.20
2022-09-11T15:35:18.625Z,0.20
2022-09-11T15:37:20.186Z,0.30
2022-09-11T15:39:24.275Z,0.20
2022-09-11T15:41:27.964Z,0.38
2022-09-11T15:43:35.802Z,0.40
2022-09-11T15:45:42.877Z,0.40
2022-09-11T15:47:44.499Z,0.22
2022-09-11T15:49:47.777Z,0.30
2022-09-11T15:51:50.909Z,0.20
2022-09-11T15:53:52.356Z,0.30
2022-09-11T15:56:04.244Z,0.55
2022-09-11T15:58:05.699Z,0.30
2022-09-11T16:00:07.953Z,0.20
2022-09-11T16:02:12.225Z,0.10
2022-09-11T16:04:18.606Z,0.20
2022-09-11T16:06:21.064Z,0.28
2022-09-11T16:08:23.387Z,0.20
2022-09-11T16:10:24.850Z,0.25
2022-09-11T16:12:26.394Z,0.30
2022-09-11T16:14:35.995Z,0.15
2022-09-11T16:16:37.675Z,0.20
2022-09-11T16:18:39.114Z,0.38
2022-09-11T16:20:41.625Z,0.20
2022-09-11T16:22:44.105Z,0.30
2022-09-11T16:24:45.649Z,0.30
2022-09-11T16:26:47.323Z,0.30
2022-09-11T16:28:48.770Z,0.30
2022-09-11T16:30:53.821Z,0.20
2022-09-11T16:32:55.257Z,0.38
2022-09-11T16:34:57.615Z,0.38
2022-09-11T16:36:59.883Z,0.40
2022-09-11T16:39:01.355Z,0.20
2022-09-11T16:41:09.365Z,0.20
2022-09-11T16:43:10.853Z,0.38
2022-09-11T16:45:12.305Z,0.20
2022-09-11T16:47:13.726Z,0.30
2022-09-11T16:49:18.374Z,0.30
2022-09-11T16:51:20.771Z,0.30
2022-09-11T16:53:23.228Z,0.40
2022-09-11T16:55:25.393Z,0.30
2022-09-11T16:57:29.614Z,0.50
2022-09-11T16:59:31.046Z,0.30
2022-09-11T17:01:32.533Z,0.30
2022-09-11T17:03:39.476Z,0.30
2022-09-11T17:06:01.017Z,0.30
2022-09-11T17:08:03.229Z,0.20
2022-09-11T17:10:05.014Z,0.30
2022-09-11T17:12:06.952Z,0.40
2022-09-11T17:14:08.357Z,0.32
2022-09-11T17:16:16.083Z,0.30
2022-09-11T17:18:18.113Z,0.40
2022-09-11T17:20:20.016Z,0.30
2022-09-11T17:22:21.457Z,0.52
2022-09-11T17:24:24.122Z,0.57
2022-09-11T17:26:25.627Z,0.52
2022-09-11T17:28:27.136Z,0.60
2022-09-11T17:30:28.681Z,0.50
2022-09-11T17:32:31.233Z,0.52
2022-09-11T17:34:32.761Z,0.60
2022-09-11T17:36:34.487Z,0.77
2022-09-11T17:38:37.197Z,0.60
2022-09-11T17:40:38.990Z,0.73
2022-09-11T17:42:40.781Z,1.08
2022-09-11T17:44:42.333Z,0.70
2022-09-11T17:46:43.861Z,1.00
2022-09-11T17:48:46.030Z,0.82
2022-09-11T17:50:48.750Z,0.80
2022-09-11T17:52:50.740Z,1.10
2022-09-11T17:54:52.167Z,1.20
2022-09-11T17:56:58.013Z,1.10
2022-09-11T17:59:00.637Z,0.80
2022-09-11T18:01:02.900Z,0.90
2022-09-11T18:03:04.460Z,0.60
2022-09-11T18:05:07.133Z,0.60
2022-09-11T18:07:08.555Z,0.60
2022-09-11T18:09:13.892Z,0.60
2022-09-11T18:11:15.385Z,0.70
2022-09-11T18:13:16.810Z,0.80
2022-09-11T18:15:18.808Z,0.93
2022-09-11T18:17:20.371Z,0.85
2022-09-11T18:19:22.808Z,0.60
2022-09-11T18:21:26.000Z,0.60
2022-09-11T18:23:27.481Z,1.00
2022-09-11T18:25:30.123Z,1.00
2022-09-11T18:27:31.585Z,1.00
2022-09-11T18:29:35.553Z,0.85
2022-09-11T18:31:40.027Z,1.08
2022-09-11T18:33:41.569Z,1.00
2022-09-11T18:35:44.256Z,0.90
2022-09-11T18:37:45.706Z,1.00
2022-09-11T18:39:48.671Z,0.70
2022-09-11T18:41:52.690Z,0.77
2022-09-11T18:43:55.667Z,0.80
2022-09-11T18:46:02.223Z,0.68
2022-09-11T18:48:04.834Z,1.13
2022-09-11T18:50:07.050Z,0.68
2022-09-11T18:52:08.820Z,1.00
2022-09-11T18:54:14.970Z,1.10
2022-09-11T18:56:16.411Z,1.15
2022-09-11T18:58:17.823Z,1.40
2022-09-11T19:00:19.369Z,1.17
2022-09-11T19:02:20.862Z,1.02
2022-09-11T19:04:23.304Z,1.42
2022-09-11T19:06:27.588Z,1.00
2022-09-11T19:08:29.057Z,1.00
2022-09-11T19:10:30.562Z,1.00
2022-09-11T19:12:32.025Z,1.02
2022-09-11T19:14:35.891Z,0.70
2022-09-11T19:16:38.529Z,0.90
2022-09-11T19:18:40.544Z,1.10
2022-09-11T19:20:43.288Z,1.10
2022-09-11T19:22:44.712Z,0.93
2022-09-11T19:24:46.278Z,1.10
2022-09-11T19:26:47.727Z,1.30
2022-09-11T19:28:50.429Z,0.90
2022-09-11T19:31:00.553Z,1.05
2022-09-11T19:33:02.233Z,1.30
2022-09-11T19:35:04.759Z,1.20
2022-09-11T19:37:06.190Z,1.20
2022-09-11T19:39:09.874Z,1.27
2022-09-11T19:41:14.580Z,1.20
2022-09-11T19:43:16.615Z,1.00
2022-09-11T19:45:18.126Z,1.15
2022-09-11T19:47:19.555Z,1.38
2022-09-11T19:49:20.987Z,1.63
2022-09-11T19:51:23.838Z,1.60
2022-09-11T19:53:25.273Z,1.48
2022-09-11T19:55:26.731Z,1.15
2022-09-11T19:57:28.232Z,1.40
2022-09-11T19:59:30.127Z,1.33
2022-09-11T20:01:31.695Z,1.20
2022-09-11T20:03:33.147Z,1.27
2022-09-11T20:05:34.560Z,1.50
2022-09-11T20:07:37.721Z,1.27
2022-09-11T20:09:40.275Z,1.15
2022-09-11T20:11:41.733Z,1.40
2022-09-11T20:13:43.463Z,1.00
2022-09-11T20:15:45.508Z,1.08
2022-09-11T20:17:46.944Z,1.17
2022-09-11T20:19:48.384Z,1.38
2022-09-11T20:21:49.835Z,1.30
2022-09-11T20:23:55.467Z,1.38
2022-09-11T20:26:16.318Z,2.22
2022-09-11T20:28:18.554Z,2.10
2022-09-11T20:30:20.055Z,1.13
2022-09-11T20:32:21.488Z,1.40
2022-09-11T20:34:27.732Z,1.40
2022-09-11T20:36:30.098Z,1.60
2022-09-11T20:38:31.647Z,1.38
2022-09-11T20:40:36.308Z,1.50
2022-09-11T20:42:37.916Z,1.63
2022-09-11T20:44:39.578Z,1.92
2022-09-11T20:46:41.278Z,1.70
2022-09-11T20:48:42.767Z,1.55
2022-09-11T20:50:44.658Z,1.83
2022-09-11T20:52:46.648Z,1.45
2022-09-11T20:54:49.043Z,2.00
2022-09-11T20:56:50.533Z,1.52
2022-09-11T20:58:52.521Z,1.60
2022-09-11T21:00:53.977Z,1.65
2022-09-11T21:02:55.457Z,1.60
2022-09-11T21:04:56.880Z,1.60
2022-09-11T21:06:58.303Z,1.27
2022-09-11T21:09:03.107Z,1.30
2022-09-11T21:11:05.481Z,9.77
2022-09-11T21:13:07.022Z,11.30
2022-09-11T21:15:09.121Z,6.65
2022-09-11T21:17:10.553Z,5.35
2022-09-11T21:19:12.041Z,3.17
2022-09-11T21:21:13.560Z,1.88
2022-09-11T21:23:15.018Z,5.85
2022-09-11T21:25:16.657Z,3.67
2022-09-11T21:27:18.181Z,2.25
2022-09-11T21:29:19.746Z,1.52
2022-09-11T21:31:21.351Z,2.03
2022-09-11T21:33:22.897Z,2.10
2022-09-11T21:35:24.380Z,1.58
2022-09-11T21:37:25.846Z,1.85
2022-09-11T21:39:27.358Z,1.40
2022-09-11T21:41:28.887Z,1.65
2022-09-11T21:43:30.516Z,1.40
2022-09-11T21:45:31.954Z,3.97
2022-09-11T21:47:33.386Z,2.20
2022-09-11T21:49:34.804Z,2.40
2022-09-11T21:51:36.222Z,1.98
2022-09-11T21:53:38.888Z,1.95
2022-09-11T21:55:43.057Z,1.88
2022-09-11T21:57:44.615Z,2.20
2022-09-11T21:59:46.046Z,2.00
2022-09-11T22:01:47.495Z,2.20
2022-09-11T22:03:50.096Z,2.10
2022-09-11T22:05:51.518Z,1.90
2022-09-11T22:07:53.438Z,1.73
2022-09-11T22:09:55.662Z,1.73
2022-09-11T22:11:59.939Z,1.75
2022-09-11T22:14:01.674Z,1.80
2022-09-11T22:16:06.233Z,1.95
2022-09-11T22:18:08.004Z,1.83
2022-09-11T22:20:10.027Z,1.90
2022-09-11T22:22:12.886Z,4.72
2022-09-11T22:24:14.385Z,22.17
2022-09-11T22:26:19.255Z,5.40
2022-09-11T22:28:20.689Z,9.48
2022-09-11T22:30:23.633Z,4.95
2022-09-11T22:32:25.386Z,3.13
2022-09-11T22:34:26.971Z,2.80
2022-09-11T22:36:29.781Z,2.95
2022-09-11T22:38:31.217Z,2.67
2022-09-11T22:40:32.696Z,3.10
2022-09-11T22:42:34.110Z,2.97
2022-09-11T22:44:35.549Z,7.60
2022-09-11T22:46:37.043Z,3.85
2022-09-11T22:48:38.579Z,3.60
2022-09-11T22:50:39.988Z,2.80
2022-09-11T22:52:41.417Z,2.95
2022-09-11T22:54:44.150Z,2.92
2022-09-11T22:56:45.565Z,2.85
2022-09-11T22:58:47.499Z,3.05
2022-09-11T23:00:50.294Z,2.92
2022-09-11T23:02:51.853Z,3.10
2022-09-11T23:05:11.901Z,2.75
2022-09-11T23:07:15.950Z,2.78
2022-09-11T23:09:17.427Z,3.13
2022-09-11T23:11:19.872Z,4.70
2022-09-11T23:13:21.479Z,3.55
2022-09-11T23:15:22.968Z,3.17
2022-09-11T23:17:24.430Z,2.95
2022-09-11T23:19:25.935Z,3.28
2022-09-11T23:21:29.500Z,2.80
2022-09-11T23:23:30.919Z,2.78
2022-09-11T23:25:33.910Z,2.50
2022-09-11T23:27:35.384Z,3.15
2022-09-11T23:29:36.796Z,2.55
2022-09-11T23:31:38.855Z,2.92
2022-09-11T23:33:40.870Z,2.60
2022-09-11T23:35:42.402Z,2.90
2022-09-11T23:37:45.522Z,3.17
2022-09-11T23:39:47.217Z,2.92
2022-09-11T23:41:49.147Z,2.90
2022-09-11T23:43:51.569Z,3.60
2022-09-11T23:45:53.056Z,3.58
2022-09-11T23:47:54.817Z,3.67
2022-09-11T23:49:57.630Z,3.45
2022-09-11T23:51:59.032Z,3.40
2022-09-11T23:54:00.449Z,3.22
2022-09-11T23:56:02.126Z,3.35
2022-09-11T23:58:03.888Z,3.47
